Time;durP1;ratioP1;P1;durP2;ratioP2;P2;SDS_P1;SDS_P2;PMS_P1;PMS_P2;Temp;Humidity;BMP_temperature;BMP_pressure;BME280_temperature;BME280_humidity;BME280_pressure;Samples;Min_cycle;Max_cycle;Signal;HPM_P1;HPM_P2
2023/10/11 00:02:55;;;;;;;22.20;14.20;;;;;;;12.03;99.89;100751.88;110702;1209;138939;-61
2023/10/11 00:05:22;;;;;;;22.40;14.30;;;;;;;12.03;99.95;100744.73;111010;1220;97569;-61
2023/10/11 00:07:47;;;;;;;25.00;14.30;;;;;;;12.02;99.99;100740.45;110892;1212;140716;-61
2023/10/11 00:10:19;;;;;;;22.50;13.80;;;;;;;12.02;99.99;100736.33;110850;1209;98073;-61
2023/10/11 00:12:45;;;;;;;25.00;15.20;;;;;;;12.04;100.00;100740.00;110864;1211;106902;-61
2023/10/11 00:15:11;;;;;;;35.60;14.90;;;;;;;12.06;100.00;100738.50;110716;1211;139541;-61
2023/10/11 00:17:36;;;;;;;24.70;15.50;;;;;;;12.06;100.00;100731.31;110954;1211;97681;-62
2023/10/11 00:20:19;;;;;;;30.50;16.10;;;;;;;12.07;100.00;100732.00;110728;1211;139488;-60
2023/10/11 00:22:45;;;;;;;26.10;15.50;;;;;;;12.06;100.00;100724.14;110913;1214;107846;-61
2023/10/11 00:25:23;;;;;;;25.60;15.20;;;;;;;12.07;100.00;100722.52;110745;1211;140025;-61
2023/10/11 00:27:48;;;;;;;24.80;14.40;;;;;;;12.06;100.00;100718.95;110871;1212;97759;-61
2023/10/11 00:30:17;;;;;;;25.40;14.20;;;;;;;12.06;100.00;100715.71;110768;1212;97603;-61
2023/10/11 00:32:44;;;;;;;29.10;16.80;;;;;;;12.07;100.00;100714.24;110752;1209;139561;-61
2023/10/11 00:35:18;;;;;;;25.70;14.30;;;;;;;12.08;100.00;100710.64;110938;1211;97667;-61
2023/10/11 00:37:49;;;;;;;27.00;16.30;;;;;;;12.09;100.00;100708.27;110749;1211;139123;-61
2023/10/11 00:40:17;;;;;;;28.60;17.00;;;;;;;12.10;100.00;100706.23;110853;1211;97649;-60
2023/10/11 00:42:48;;;;;;;27.80;14.60;;;;;;;12.11;100.00;100704.05;110811;1213;111750;-61
2023/10/11 00:45:16;;;;;;;24.10;13.10;;;;;;;12.12;100.00;100696.84;110691;1212;139360;-62
2023/10/11 00:47:45;;;;;;;20.50;12.50;;;;;;;12.14;100.00;100696.36;110844;1212;97596;-61
2023/10/11 00:50:14;;;;;;;18.50;11.90;;;;;;;12.15;100.00;100698.48;110814;1212;141223;-61
2023/10/11 00:52:43;;;;;;;22.30;12.60;;;;;;;12.15;100.00;100698.42;110939;1211;97607;-61
2023/10/11 00:55:23;;;;;;;22.80;12.30;;;;;;;12.17;100.00;100690.67;110750;1211;140682;-62
2023/10/11 00:57:50;;;;;;;16.20;11.20;;;;;;;12.17;100.00;100685.80;110790;1211;100007;-61
2023/10/11 01:00:21;;;;;;;21.30;12.70;;;;;;;12.18;100.00;100681.11;110816;1209;97773;-61
2023/10/11 01:02:48;;;;;;;22.40;12.20;;;;;;;12.18;100.00;100680.02;110955;1208;139826;-61
2023/10/11 01:05:17;;;;;;;17.40;11.30;;;;;;;12.18;100.00;100680.77;110826;1211;97693;-61
2023/10/11 01:07:44;;;;;;;19.10;12.00;;;;;;;12.16;100.00;100674.40;110852;1211;139189;-61
2023/10/11 01:10:10;;;;;;;20.80;13.00;;;;;;;12.15;100.00;100672.46;110930;1212;99121;-61
2023/10/11 01:12:35;;;;;;;20.50;12.80;;;;;;;12.16;100.00;100671.69;110931;1212;97581;-61
2023/10/11 01:15:01;;;;;;;21.70;12.20;;;;;;;12.17;100.00;100673.08;110789;1212;140658;-61
2023/10/11 01:17:31;;;;;;;19.60;11.70;;;;;;;12.17;100.00;100668.60;110808;1209;97604;-61
2023/10/11 01:19:59;;;;;;;20.10;12.40;;;;;;;12.17;100.00;100666.11;110714;1212;140526;-61
2023/10/11 01:22:26;;;;;;;20.40;12.70;;;;;;;12.16;100.00;100664.37;110842;1212;107828;-61
2023/10/11 01:24:53;;;;;;;19.40;11.20;;;;;;;12.17;100.00;100661.65;110895;1212;98042;-60
2023/10/11 01:27:21;;;;;;;20.50;11.80;;;;;;;12.16;100.00;100666.52;110877;1212;139755;-61
2023/10/11 01:29:46;;;;;;;18.70;12.30;;;;;;;12.15;100.00;100668.70;110860;1212;97348;-61
2023/10/11 01:32:12;;;;;;;18.90;11.10;;;;;;;12.14;100.00;100669.64;110761;1212;141275;-60
2023/10/11 01:34:37;;;;;;;24.60;11.30;;;;;;;12.14;100.00;100670.74;110845;1209;97594;-61
2023/10/11 01:37:03;;;;;;;17.80;11.60;;;;;;;12.15;100.00;100672.15;110727;1208;140782;-61
2023/10/11 01:39:32;;;;;;;23.10;13.60;;;;;;;12.15;100.00;100674.28;110937;1212;97677;-61
2023/10/11 01:41:58;;;;;;;19.70;13.10;;;;;;;12.15;100.00;100668.89;110885;1209;107033;-61
2023/10/11 01:44:24;;;;;;;22.60;14.00;;;;;;;12.15;100.00;100667.85;110836;1215;139581;-61
2023/10/11 01:46:50;;;;;;;24.00;14.00;;;;;;;12.15;100.00;100661.38;110912;1212;97648;-61
2023/10/11 01:49:15;;;;;;;20.70;12.50;;;;;;;12.15;100.00;100664.04;110799;1211;139551;-61
2023/10/11 01:51:47;;;;;;;19.20;12.90;;;;;;;12.15;100.00;100667.30;110914;1212;97623;-61
2023/10/11 01:54:18;;;;;;;22.80;13.20;;;;;;;12.13;100.00;100664.89;110813;1224;99070;-61
2023/10/11 01:56:45;;;;;;;17.80;13.00;;;;;;;12.11;100.00;100663.36;110795;1210;140597;-60
2023/10/11 01:59:12;;;;;;;25.90;15.90;;;;;;;12.09;100.00;100660.08;110852;1212;97688;-61
2023/10/11 02:01:40;;;;;;;24.90;15.70;;;;;;;12.09;100.00;100655.06;110793;1212;140420;-61
2023/10/11 02:04:14;;;;;;;26.70;15.00;;;;;;;12.09;100.00;100655.41;110822;1212;107983;-61
2023/10/11 02:06:40;;;;;;;30.20;16.70;;;;;;;12.11;100.00;100653.02;110912;1228;97576;-61
2023/10/11 02:09:05;;;;;;;33.10;16.80;;;;;;;12.12;100.00;100651.17;110741;1210;141250;-61
2023/10/11 02:11:30;;;;;;;28.10;14.50;;;;;;;12.12;100.00;100656.34;110954;1208;97706;-61
2023/10/11 02:14:00;;;;;;;26.10;14.30;;;;;;;12.12;100.00;100651.84;110765;1212;139783;-61
2023/10/11 02:16:28;;;;;;;24.50;14.40;;;;;;;12.12;100.00;100652.39;110890;1209;97656;-61
2023/10/11 02:18:59;;;;;;;26.80;14.40;;;;;;;12.13;100.00;100643.23;110941;1212;98131;-61
2023/10/11 02:21:26;;;;;;;23.60;14.40;;;;;;;12.13;100.00;100642.31;110879;1211;111590;-61
2023/10/11 02:23:51;;;;;;;21.90;13.00;;;;;;;12.13;100.00;100642.11;110906;1210;97696;-62
2023/10/11 02:26:16;;;;;;;23.40;12.30;;;;;;;12.14;100.00;100636.36;110719;1215;139750;-61
2023/10/11 02:28:44;;;;;;;19.80;13.10;;;;;;;12.14;100.00;100631.70;110793;1215;97586;-61
2023/10/11 02:31:13;;;;;;;24.70;13.20;;;;;;;12.14;100.00;100629.70;110592;1212;140464;-60
2023/10/11 02:33:39;;;;;;;20.80;12.70;;;;;;;12.15;100.00;100623.56;111146;1210;99370;-62
2023/10/11 02:36:08;;;;;;;19.30;12.40;;;;;;;12.18;100.00;100620.75;111194;1212;97683;-61
2023/10/11 02:38:39;;;;;;;23.50;13.90;;;;;;;12.20;100.00;100620.11;110919;1221;138941;-61
2023/10/11 02:41:04;;;;;;;16.90;11.90;;;;;;;12.20;100.00;100615.45;110891;1214;97663;-61
2023/10/11 02:43:33;;;;;;;26.50;13.90;;;;;;;12.22;100.00;100613.21;110750;1210;139803;-61
2023/10/11 02:45:59;;;;;;;21.20;12.20;;;;;;;12.23;100.00;100611.89;110890;1212;97820;-61
2023/10/11 02:48:27;;;;;;;19.90;11.10;;;;;;;12.22;100.00;100606.55;111076;1212;97648;-62
2023/10/11 02:50:55;;;;;;;20.60;12.20;;;;;;;12.23;100.00;100609.75;110736;1210;139704;-61
2023/10/11 02:53:21;;;;;;;20.70;12.40;;;;;;;12.24;100.00;100608.77;110834;1212;97695;-61
2023/10/11 02:55:58;;;;;;;22.70;12.50;;;;;;;12.24;100.00;100603.21;110725;1212;139874;-61
2023/10/11 02:58:29;;;;;;;21.50;12.20;;;;;;;12.26;100.00;100600.45;110917;1212;108118;-61
2023/10/11 03:01:00;;;;;;;22.80;13.20;;;;;;;12.26;100.00;100602.95;110838;1210;97696;-61
2023/10/11 03:03:28;;;;;;;19.80;11.80;;;;;;;12.25;100.00;100591.89;110796;1212;98129;-61
2023/10/11 03:05:55;;;;;;;18.10;11.80;;;;;;;12.25;100.00;100589.54;110693;1215;99299;-61
2023/10/11 03:08:21;;;;;;;22.70;13.10;;;;;;;12.26;100.00;100583.61;110635;1212;139069;-59
2023/10/11 03:10:56;;;;;;;18.60;12.20;;;;;;;12.27;100.00;100581.55;110810;1215;97608;-61
2023/10/11 03:13:29;;;;;;;18.60;12.20;;;;;;;12.28;100.00;100574.90;110764;1212;139654;-60
2023/10/11 03:15:56;;;;;;;20.80;12.10;;;;;;;12.28;100.00;100575.27;110875;1212;111791;-60
2023/10/11 03:18:32;;;;;;;23.80;12.80;;;;;;;12.27;100.00;100579.23;110778;1212;97584;-60
2023/10/11 03:21:19;;;;;;;22.90;11.20;;;;;;;12.27;100.00;100581.40;110767;1212;140152;-60
2023/10/11 03:23:47;;;;;;;27.00;13.50;;;;;;;12.26;100.00;100579.99;110905;1212;97641;-60
2023/10/11 03:29:00;;;;;;;22.00;12.60;;;;;;;12.30;100.00;100581.61;110848;1212;111230;-62
2023/10/11 03:31:31;;;;;;;22.40;12.40;;;;;;;12.30;100.00;100579.63;110759;1212;139437;-62
2023/10/11 03:33:59;;;;;;;22.30;13.60;;;;;;;12.31;100.00;100576.86;110924;1212;107823;-60
2023/10/11 03:36:35;;;;;;;28.70;14.10;;;;;;;12.33;100.00;100578.77;110970;1212;97606;-62
2023/10/11 03:39:08;;;;;;;21.50;13.20;;;;;;;12.32;100.00;100572.20;110763;1209;139038;-62
2023/10/11 03:41:44;;;;;;;22.70;12.20;;;;;;;12.30;100.00;100568.15;110945;1212;111963;-62
2023/10/11 03:44:09;;;;;;;29.90;13.60;;;;;;;12.29;100.00;100566.59;110703;1212;140747;-62
2023/10/11 03:46:36;;;;;;;23.20;12.20;;;;;;;12.29;100.00;100559.45;110785;1210;97672;-62
2023/10/11 03:49:36;;;;;;;21.30;13.00;;;;;;;12.28;100.00;100553.02;110847;1213;98840;-62
2023/10/11 03:51:59;;;;;;;25.10;13.20;;;;;;;12.27;100.00;100552.89;110817;1225;111633;-62
2023/10/11 03:54:25;;;;;;;24.00;12.50;;;;;;;12.25;100.00;100555.52;110874;1212;97661;-62
2023/10/11 03:56:55;;;;;;;25.20;12.80;;;;;;;12.24;100.00;100550.77;110805;1212;139660;-62
2023/10/11 03:59:25;;;;;;;20.90;13.00;;;;;;;12.23;100.00;100540.92;110897;1225;97605;-62
2023/10/11 04:01:52;;;;;;;19.80;11.70;;;;;;;12.21;100.00;100536.93;110799;1225;139813;-62
2023/10/11 04:04:19;;;;;;;22.10;11.80;;;;;;;12.20;100.00;100540.55;110813;1209;97602;-62
2023/10/11 04:06:51;;;;;;;18.30;12.60;;;;;;;12.19;100.00;100535.97;110854;1215;98010;-62
2023/10/11 04:09:31;;;;;;;22.60;12.40;;;;;;;12.16;100.00;100538.61;110629;1212;140217;-62
2023/10/11 04:11:57;;;;;;;21.30;12.10;;;;;;;12.14;100.00;100533.01;110886;1212;97707;-62
2023/10/11 04:14:44;;;;;;;23.00;12.60;;;;;;;12.14;100.00;100522.58;110797;1210;139445;-60
2023/10/11 04:19:54;;;;;;;19.50;12.30;;;;;;;12.13;100.00;100520.15;110745;1212;140166;-60
2023/10/11 04:22:26;;;;;;;28.80;13.70;;;;;;;12.13;100.00;100524.29;110969;1228;97750;-60
2023/10/11 04:24:54;;;;;;;67.50;38.50;;;;;;;12.11;100.00;100530.45;110883;1212;97774;-60
2023/10/11 04:29:51;;;;;;;24.10;13.30;;;;;;;12.11;100.00;100531.02;110912;1210;97601;-61
2023/10/11 04:32:41;;;;;;;27.20;14.10;;;;;;;12.13;100.00;100530.54;110733;1209;139711;-60
2023/10/11 04:35:25;;;;;;;22.10;12.50;;;;;;;12.14;100.00;100515.42;110946;1222;97634;-61
2023/10/11 04:37:54;;;;;;;25.40;13.50;;;;;;;12.14;100.00;100508.96;110825;1212;139787;-61
2023/10/11 04:40:34;;;;;;;23.00;12.90;;;;;;;12.13;100.00;100509.74;111033;1212;111548;-61
2023/10/11 04:43:04;;;;;;;19.50;12.10;;;;;;;12.12;100.00;100504.26;110856;1212;98899;-61
2023/10/11 04:45:32;;;;;;;23.70;13.60;;;;;;;12.12;100.00;100499.81;110774;1212;138935;-61
2023/10/11 04:47:58;;;;;;;25.10;13.00;;;;;;;12.12;100.00;100493.16;110780;1208;97590;-61
2023/10/11 04:50:24;;;;;;;31.00;13.80;;;;;;;12.13;100.00;100491.85;110638;1212;139084;-61
2023/10/11 04:52:49;;;;;;;36.40;13.00;;;;;;;12.14;100.00;100493.23;110933;1212;97670;-61
2023/10/11 04:55:26;;;;;;;23.10;13.40;;;;;;;12.14;100.00;100492.52;110702;1212;139930;-61
2023/10/11 04:58:04;;;;;;;24.70;12.60;;;;;;;12.14;100.00;100487.13;110784;1209;97627;-61
2023/10/11 05:00:43;;;;;;;36.40;14.00;;;;;;;12.14;100.00;100482.48;110757;1212;96746;-61
2023/10/11 05:03:10;;;;;;;26.20;12.40;;;;;;;12.13;100.00;100477.88;110658;1212;140938;-61
2023/10/11 05:05:35;;;;;;;25.00;12.90;;;;;;;12.13;100.00;100480.93;110916;1212;97639;-61
2023/10/11 05:08:20;;;;;;;21.00;12.60;;;;;;;12.12;100.00;100483.83;110845;1210;139753;-61
2023/10/11 05:10:46;;;;;;;27.80;13.30;;;;;;;12.12;100.00;100476.86;110817;1211;98318;-61
2023/10/11 05:13:13;;;;;;;21.10;12.70;;;;;;;12.11;100.00;100474.77;110792;1209;140879;-61
2023/10/11 05:15:47;;;;;;;21.70;13.50;;;;;;;12.08;100.00;100477.23;110901;1209;97630;-61
2023/10/11 05:18:18;;;;;;;25.10;12.80;;;;;;;12.07;100.00;100479.42;110660;1212;107976;-61
2023/10/11 05:20:57;;;;;;;25.80;12.80;;;;;;;12.08;100.00;100482.09;110673;1212;139169;-61
2023/10/11 05:23:25;;;;;;;23.20;13.00;;;;;;;12.08;100.00;100483.84;110996;1209;97843;-61
2023/10/11 05:25:58;;;;;;;27.40;14.20;;;;;;;12.09;100.00;100478.09;110795;1212;139334;-61
2023/10/11 05:28:27;;;;;;;28.00;14.30;;;;;;;12.09;100.00;100481.88;110922;1208;100526;-61
2023/10/11 05:31:19;;;;;;;22.60;12.10;;;;;;;12.11;100.00;100480.14;110924;1212;107736;-61
2023/10/11 05:33:58;;;;;;;21.00;11.90;;;;;;;12.13;100.00;100476.78;110661;1212;97941;-60
2023/10/11 05:52:48;;;;;;;22.80;11.70;;;;;;;12.35;100.00;100457.71;110783;1215;112422;-60
2023/10/11 05:55:16;;;;;;;24.30;12.40;;;;;;;12.39;100.00;100455.31;110605;1213;139965;-61
2023/10/11 05:57:42;;;;;;;20.70;11.90;;;;;;;12.43;100.00;100462.14;110727;1209;97616;-62
2023/10/11 06:00:23;;;;;;;29.80;12.60;;;;;;;12.47;100.00;100463.66;110662;1215;97602;-61
2023/10/11 06:02:50;;;;;;;22.00;13.20;;;;;;;12.54;100.00;100471.75;110711;1212;138922;-61
2023/10/11 06:05:17;;;;;;;24.80;11.40;;;;;;;12.58;100.00;100467.20;110813;1210;96459;-61
2023/10/11 06:07:42;;;;;;;19.10;10.80;;;;;;;12.64;100.00;100468.86;110770;1212;140146;-61
2023/10/11 06:10:08;;;;;;;22.80;11.30;;;;;;;12.68;100.00;100461.98;110874;1210;97784;-60
2023/10/11 06:12:35;;;;;;;25.00;10.70;;;;;;;12.75;100.00;100462.52;110894;1209;110416;-61
2023/10/11 06:15:06;;;;;;;20.80;10.90;;;;;;;12.80;100.00;100461.69;110809;1209;139340;-61
2023/10/11 06:17:48;;;;;;;17.80;10.70;;;;;;;12.86;100.00;100464.58;110796;1209;106433;-61
2023/10/11 06:20:27;;;;;;;19.80;11.00;;;;;;;12.94;100.00;100470.22;110681;1208;140729;-62
2023/10/11 06:22:56;;;;;;;20.70;10.20;;;;;;;13.03;100.00;100471.65;110823;1208;97947;-61
2023/10/11 06:28:15;;;;;;;22.00;10.20;;;;;;;13.18;100.00;100474.98;110827;1212;98120;-61
2023/10/11 06:30:46;;;;;;;19.80;11.00;;;;;;;13.23;100.00;100465.52;110827;1212;107969;-61
2023/10/11 06:33:13;;;;;;;17.50;10.60;;;;;;;13.30;100.00;100464.25;110769;1212;140073;-61
2023/10/11 06:35:45;;;;;;;21.60;10.70;;;;;;;13.38;100.00;100462.52;110729;1208;96589;-61
2023/10/11 06:38:12;;;;;;;29.20;11.80;;;;;;;13.44;100.00;100460.22;110637;1212;139509;-61
2023/10/11 06:40:47;;;;;;;16.80;9.90;;;;;;;13.47;100.00;100463.23;110151;1212;98708;-62
2023/10/11 06:43:16;;;;;;;19.50;9.50;;;;;;;13.54;100.00;100459.23;106647;1210;107877;-61
2023/10/11 06:45:42;;;;;;;22.10;11.10;;;;;;;13.60;100.00;100458.56;110707;1212;99137;-62
2023/10/11 06:48:08;;;;;;;21.20;12.00;;;;;;;13.67;100.00;100453.82;110675;1209;99051;-61
2023/10/11 06:50:37;;;;;;;21.50;11.00;;;;;;;13.74;100.00;100451.59;110692;1212;139556;-61
2023/10/11 06:53:07;;;;;;;23.00;10.30;;;;;;;13.80;100.00;100453.20;110824;1212;97668;-61
2023/10/11 06:55:33;;;;;;;36.60;10.90;;;;;;;13.88;100.00;100453.48;110691;1212;139293;-61
2023/10/11 06:58:03;;;;;;;19.90;10.10;;;;;;;13.95;100.00;100455.17;110705;1208;97686;-62
2023/10/11 07:00:29;;;;;;;24.40;10.40;;;;;;;14.03;100.00;100454.38;110765;1208;97586;-62
2023/10/11 07:05:48;;;;;;;26.00;11.10;;;;;;;14.17;100.00;100452.95;110736;1212;100807;-64
2023/10/11 07:08:18;;;;;;;17.60;9.80;;;;;;;14.24;100.00;100453.95;110442;1214;141638;-62
2023/10/11 07:13:54;;;;;;;13.50;8.90;;;;;;;14.39;100.00;100443.84;110583;1212;138869;-62
2023/10/11 07:16:21;;;;;;;22.90;10.20;;;;;;;14.46;100.00;100440.05;110606;1212;111345;-61
2023/10/11 07:18:57;;;;;;;19.20;9.90;;;;;;;14.51;100.00;100442.78;110564;1212;98216;-62
2023/10/11 07:21:27;;;;;;;16.20;9.30;;;;;;;14.56;100.00;100435.94;110322;1212;139804;-62
2023/10/11 07:29:00;;;;;;;28.90;10.20;;;;;;;14.74;100.00;100440.79;110636;1212;111481;-61
2023/10/11 07:31:32;;;;;;;15.00;9.50;;;;;;;14.77;100.00;100440.02;110527;1209;141324;-62
2023/10/11 07:33:58;;;;;;;22.30;8.90;;;;;;;14.81;100.00;100442.46;110614;1212;107902;-61
2023/10/11 07:36:23;;;;;;;20.10;9.20;;;;;;;14.84;100.00;100438.84;110719;1212;97604;-62
2023/10/11 07:38:54;;;;;;;19.00;10.20;;;;;;;14.88;100.00;100436.42;110643;1213;139419;-61
2023/10/11 07:41:21;;;;;;;19.40;9.50;;;;;;;14.93;100.00;100432.66;110705;1212;99880;-62
2023/10/11 07:43:47;;;;;;;17.50;9.20;;;;;;;14.97;100.00;100427.20;110551;1209;138938;-61
2023/10/11 07:46:13;;;;;;;19.20;9.10;;;;;;;15.02;100.00;100426.54;110683;1212;97685;-61
2023/10/11 07:48:39;;;;;;;19.40;8.90;;;;;;;15.05;100.00;100422.17;110778;1212;97587;-61
2023/10/11 07:51:11;;;;;;;24.70;10.20;;;;;;;15.11;100.00;100422.17;110621;1221;139331;-62
2023/10/11 07:53:40;;;;;;;19.90;8.90;;;;;;;15.13;100.00;100424.70;110793;1212;107883;-62
2023/10/11 07:56:05;;;;;;;13.60;8.10;;;;;;;15.18;100.00;100424.00;110727;1212;138998;-61
2023/10/11 07:58:32;;;;;;;19.10;8.40;;;;;;;15.22;100.00;100425.19;110723;1212;97715;-61
2023/10/11 08:01:15;;;;;;;17.60;8.80;;;;;;;15.28;100.00;100417.99;110614;1210;97647;-62
2023/10/11 08:03:44;;;;;;;17.30;9.10;;;;;;;15.33;100.00;100422.84;110803;1212;99551;-64
2023/10/11 08:06:12;;;;;;;20.00;9.10;;;;;;;15.40;99.74;100428.71;110776;1212;107173;-61
2023/10/11 08:08:38;;;;;;;19.60;8.70;;;;;;;15.46;99.91;100427.05;110620;1210;140226;-62
2023/10/11 08:11:18;;;;;;;27.60;9.10;;;;;;;15.52;99.73;100423.02;110727;1212;97660;-62
2023/10/11 08:13:48;;;;;;;19.00;8.70;;;;;;;15.59;99.66;100421.48;110680;1212;139443;-63
2023/10/11 08:16:17;;;;;;;22.80;9.20;;;;;;;15.67;99.42;100423.45;110973;1212;100337;-65
2023/10/11 08:18:48;;;;;;;23.50;9.10;;;;;;;15.73;99.23;100421.39;111011;1212;107663;-61
2023/10/11 08:21:14;;;;;;;;;;;;;;;15.80;98.76;100421.86;111009;1209;138961;-64
2023/10/11 08:23:42;;;;;;;18.00;8.80;;;;;;;15.82;98.81;100420.77;110782;1212;97706;-63
2023/10/11 08:26:14;;;;;;;21.80;8.20;;;;;;;15.86;98.59;100419.95;110622;1209;139674;-61
2023/10/11 08:28:47;;;;;;;20.30;8.50;;;;;;;15.91;98.37;100417.64;110764;1209;100089;-63
2023/10/11 08:31:14;;;;;;;61.80;17.80;;;;;;;15.96;98.04;100414.27;110687;1212;99335;-62
2023/10/11 08:33:39;;;;;;;25.90;10.90;;;;;;;16.00;97.86;100413.77;110885;1209;139440;-63
2023/10/11 08:36:10;;;;;;;30.70;10.30;;;;;;;16.04;97.65;100412.79;110784;1208;98292;-61
2023/10/11 08:38:35;;;;;;;27.50;9.30;;;;;;;16.10;97.37;100411.13;110568;1212;139734;-62
2023/10/11 08:41:01;;;;;;;16.60;8.80;;;;;;;16.17;97.24;100414.58;110687;1208;98773;-62
2023/10/11 08:43:28;;;;;;;18.80;8.60;;;;;;;16.23;96.94;100408.54;110722;1212;140035;-62
2023/10/11 08:46:05;;;;;;;18.20;8.00;;;;;;;16.30;96.69;100406.80;110806;1210;103040;-62
2023/10/11 08:48:38;;;;;;;16.20;8.10;;;;;;;16.36;95.99;100404.02;110752;1208;97665;-62
2023/10/11 08:51:12;;;;;;;20.30;8.70;;;;;;;16.42;95.56;100399.05;110625;1212;138630;-61
2023/10/11 08:53:45;;;;;;;21.50;8.60;;;;;;;16.48;94.82;100392.48;111041;1212;97783;-62
2023/10/11 08:56:14;;;;;;;20.70;9.30;;;;;;;16.54;94.18;100390.47;110641;1212;139522;-63
2023/10/11 08:58:41;;;;;;;21.80;8.50;;;;;;;16.60;93.57;100381.04;110770;1209;102997;-61
2023/10/11 09:01:07;;;;;;;21.50;8.20;;;;;;;16.67;93.35;100376.73;110652;1212;97593;-62
2023/10/11 09:03:39;;;;;;;19.70;8.20;;;;;;;16.74;93.25;100377.84;110824;1209;140006;-61
2023/10/11 09:06:25;;;;;;;23.90;8.60;;;;;;;16.81;92.76;100380.98;110844;1212;98499;-67
2023/10/11 09:08:51;;;;;;;16.50;8.00;;;;;;;16.85;92.38;100390.22;110720;1210;139232;-66
2023/10/11 09:11:29;;;;;;;20.10;8.40;;;;;;;16.89;91.99;100381.66;110758;1212;97723;-67
2023/10/11 09:14:12;;;;;;;16.00;7.50;;;;;;;16.94;91.33;100380.54;110564;1213;139305;-69
2023/10/11 09:16:39;;;;;;;16.40;7.80;;;;;;;16.99;90.86;100381.58;110904;1210;99653;-67
2023/10/11 09:19:11;;;;;;;16.10;7.80;;;;;;;17.05;91.30;100378.23;110716;1212;98985;-67
2023/10/11 09:21:37;;;;;;;15.00;6.80;;;;;;;17.13;90.22;100382.33;110696;1212;138423;-67
2023/10/11 09:24:22;;;;;;;16.00;7.00;;;;;;;17.21;89.88;100378.88;110725;1212;98128;-67
2023/10/11 09:27:18;;;;;;;16.30;7.10;;;;;;;17.30;89.98;100376.02;110959;1208;139104;-66
2023/10/11 09:29:44;;;;;;;18.50;6.80;;;;;;;17.42;89.60;100370.03;110781;1212;99381;-67
2023/10/11 09:32:09;;;;;;;14.20;6.60;;;;;;;17.53;89.08;100373.20;110614;1212;139534;-67
2023/10/11 09:34:41;;;;;;;25.20;7.70;;;;;;;17.66;89.34;100374.52;110785;1209;97699;-67
2023/10/11 09:37:07;;;;;;;18.70;7.30;;;;;;;17.78;89.15;100383.16;110803;1213;97757;-68
2023/10/11 09:39:33;;;;;;;14.90;6.20;;;;;;;17.88;88.49;100384.27;110622;1209;141655;-68
2023/10/11 09:42:04;;;;;;;15.10;7.80;;;;;;;17.99;88.00;100385.30;110703;1216;97688;-66
2023/10/11 09:44:37;;;;;;;13.20;6.40;;;;;;;18.12;87.53;100382.30;110732;1212;139416;-66
2023/10/11 09:47:04;;;;;;;12.90;6.40;;;;;;;18.24;87.21;100384.21;110700;1212;97681;-68
2023/10/11 09:49:41;;;;;;;22.90;7.30;;;;;;;18.34;86.58;100389.36;110723;1212;139517;-67
2023/10/11 09:52:07;;;;;;;18.70;6.70;;;;;;;18.42;85.82;100387.50;110727;1212;97605;-67
2023/10/11 09:54:37;;;;;;;15.10;6.50;;;;;;;18.48;85.03;100390.23;110807;1209;97599;-67
2023/10/11 09:57:15;;;;;;;19.60;6.90;;;;;;;18.56;84.57;100391.06;110615;1212;138982;-67
2023/10/11 09:59:47;;;;;;;11.60;6.20;;;;;;;18.65;83.56;100387.45;110733;1212;97700;-68
2023/10/11 10:02:16;;;;;;;13.40;6.80;;;;;;;18.72;83.63;100381.48;110622;1212;137887;-66
2023/10/11 10:05:04;;;;;;;16.70;6.40;;;;;;;18.81;83.58;100382.41;110818;1225;98577;-67
2023/10/11 10:10:07;;;;;;;17.10;6.30;;;;;;;18.96;82.71;100385.67;110719;1212;102835;-68
2023/10/11 10:12:42;;;;;;;21.00;6.20;;;;;;;19.02;81.97;100387.86;110754;1212;97591;-67
2023/10/11 10:15:14;;;;;;;16.90;6.00;;;;;;;19.11;80.30;100383.70;110602;1212;138891;-66
2023/10/11 10:18:05;;;;;;;17.00;5.90;;;;;;;19.20;80.02;100381.13;110816;1210;97582;-67
2023/10/11 10:20:33;;;;;;;13.10;5.80;;;;;;;19.30;79.79;100378.45;110740;1212;141356;-67
2023/10/11 10:23:13;;;;;;;18.30;6.20;;;;;;;19.36;78.67;100375.22;110761;1212;103902;-67
2023/10/11 10:25:38;;;;;;;13.20;6.20;;;;;;;19.41;77.75;100372.83;110658;1212;138427;-66
2023/10/11 10:28:36;;;;;;;20.30;6.80;;;;;;;19.45;76.79;100369.58;110710;1208;98549;-68
2023/10/11 10:31:04;;;;;;;11.30;5.70;;;;;;;19.49;76.06;100376.52;110716;1215;97617;-68
2023/10/11 10:33:35;;;;;;;16.50;6.00;;;;;;;19.50;75.39;100376.08;110607;1212;138095;-68
2023/10/11 10:36:20;;;;;;;13.00;6.70;;;;;;;19.53;75.46;100375.45;110570;1212;103117;-67
2023/10/11 10:38:58;;;;;;;19.40;6.60;;;;;;;19.60;74.70;100378.88;110647;1212;139888;-67
2023/10/11 10:41:27;;;;;;;22.60;5.90;;;;;;;19.66;74.04;100381.25;110830;1210;99333;-67
2023/10/11 10:44:13;;;;;;;10.60;5.70;;;;;;;19.73;74.47;100378.27;110800;1209;138253;-67
2023/10/11 10:46:53;;;;;;;15.20;5.40;;;;;;;19.81;74.56;100375.59;110882;1212;97635;-67
2023/10/11 10:49:42;;;;;;;12.80;5.40;;;;;;;19.87;73.12;100376.95;110835;1212;138573;-66
2023/10/11 10:52:30;;;;;;;12.30;6.00;;;;;;;19.91;72.00;100370.73;110821;1212;97701;-67
2023/10/11 10:55:04;;;;;;;11.90;5.20;;;;;;;19.97;71.40;100364.79;110910;1209;98800;-67
2023/10/11 10:57:36;;;;;;;15.40;6.30;;;;;;;20.00;71.42;100360.91;110774;1212;138582;-67
2023/10/11 11:00:23;;;;;;;15.30;5.80;;;;;;;20.00;71.62;100346.77;110735;1211;97810;-67
2023/10/11 11:02:50;;;;;;;17.40;5.40;;;;;;;20.01;71.86;100345.91;110740;1209;139738;-67
2023/10/11 11:05:15;;;;;;;14.20;6.30;;;;;;;20.04;71.52;100341.12;110905;1212;96462;-67
2023/10/11 11:07:47;;;;;;;10.70;5.30;;;;;;;20.10;71.56;100344.94;110760;1212;137970;-67
2023/10/11 11:10:20;;;;;;;18.50;6.30;;;;;;;20.18;70.35;100337.30;110798;1212;98620;-67
2023/10/11 11:12:49;;;;;;;12.70;5.20;;;;;;;20.24;70.30;100337.34;110857;1212;99381;-67
2023/10/11 11:15:20;;;;;;;16.50;5.20;;;;;;;20.29;69.24;100341.58;110737;1209;138322;-68
2023/10/11 11:17:48;;;;;;;10.60;5.80;;;;;;;20.39;69.33;100339.86;110832;1210;97565;-67
2023/10/11 11:20:27;;;;;;;16.00;6.10;;;;;;;20.50;68.12;100334.36;110718;1209;142652;-67
2023/10/11 11:22:53;;;;;;;13.00;5.20;;;;;;;20.66;68.52;100327.05;110878;1209;97671;-69
2023/10/11 11:25:27;;;;;;;14.40;5.60;;;;;;;20.86;68.89;100327.77;110897;1212;139561;-68
2023/10/11 11:28:07;;;;;;;13.00;5.40;;;;;;;21.05;68.38;100319.85;110840;1212;103048;-67
2023/10/11 11:30:36;;;;;;;11.90;5.10;;;;;;;21.18;67.42;100309.34;110842;1212;97581;-67
2023/10/11 11:33:13;;;;;;;15.90;5.10;;;;;;;21.27;67.35;100297.70;110773;1212;137903;-67
2023/10/11 11:35:44;;;;;;;16.00;5.20;;;;;;;21.34;67.88;100295.12;110903;1208;97766;-67
2023/10/11 11:38:20;;;;;;;10.70;5.80;;;;;;;21.43;67.87;100293.77;110845;1212;138429;-69
2023/10/11 11:40:47;;;;;;;15.40;5.60;;;;;;;21.58;67.75;100287.77;110854;1212;103371;-67
2023/10/11 11:43:20;;;;;;;15.90;5.70;;;;;;;21.74;67.60;100293.89;110874;1212;97792;-68
2023/10/11 11:45:56;;;;;;;14.50;5.50;;;;;;;21.88;67.21;100295.64;110900;1208;99340;-68
2023/10/11 11:48:23;;;;;;;11.30;5.20;;;;;;;21.92;66.85;100284.72;110819;1224;97617;-67
2023/10/11 11:50:49;;;;;;;16.50;4.90;;;;;;;21.89;66.09;100291.88;110812;1212;142278;-67
2023/10/11 11:53:18;;;;;;;12.80;5.20;;;;;;;21.80;65.60;100301.02;110849;1208;97832;-67
2023/10/11 11:55:44;;;;;;;15.10;4.60;;;;;;;21.78;65.20;100300.96;110786;1212;139150;-67